Time;durP1;ratioP1;P1;durP2;ratioP2;P2;SDS_P1;SDS_P2;PMS_P1;PMS_P2;Temp;Humidity;BMP_temperature;BMP_pressure;BME280_temperature;BME280_humidity;BME280_pressure;Samples;Min_cycle;Max_cycle;Signal;HPM_P1;HPM_P2
2022/05/20 00:02:38;;;;;;;6.80;3.17;;;14.80;64.30;;;;;;10076497;29;20060;-87
2022/05/20 00:07:39;;;;;;;8.00;4.15;;;14.80;64.60;;;;;;10073867;29;20061;-86
2022/05/20 00:12:40;;;;;;;7.78;4.63;;;14.70;64.70;;;;;;10074131;29;20037;-88
2022/05/20 00:17:41;;;;;;;7.75;4.10;;;14.40;65.60;;;;;;10090352;29;20401;-86
2022/05/20 00:22:42;;;;;;;11.65;5.68;;;14.20;66.00;;;;;;10061008;29;20049;-86
2022/05/20 00:27:42;;;;;;;7.82;3.38;;;14.10;65.60;;;;;;10072778;29;20085;-88
2022/05/20 00:32:43;;;;;;;7.80;3.63;;;14.10;65.20;;;;;;10055719;29;20041;-87
2022/05/20 00:37:44;;;;;;;7.95;4.20;;;14.10;65.80;;;;;;10073076;29;20465;-89
2022/05/20 00:42:45;;;;;;;9.70;4.95;;;14.10;66.20;;;;;;10061355;29;20052;-87
2022/05/20 00:47:45;;;;;;;9.13;4.50;;;14.10;66.50;;;;;;10065251;29;20050;-87
2022/05/20 00:52:49;;;;;;;12.88;4.80;;;14.10;65.90;;;;;;10058422;29;20119;-87
2022/05/20 00:58:00;;;;;;;9.77;4.10;;;14.20;65.70;;;;;;10072450;29;20043;-87
2022/05/20 01:03:06;;;;;;;12.27;4.88;;;14.30;65.70;;;;;;10060970;29;20075;-87
2022/05/20 01:08:07;;;;;;;12.25;5.15;;;14.30;65.50;;;;;;10064222;29;20048;-87
2022/05/20 01:13:11;;;;;;;18.00;8.65;;;14.40;65.30;;;;;;10071519;29;20520;-88
2022/05/20 01:18:13;;;;;;;22.52;10.50;;;14.40;65.60;;;;;;10071119;29;20454;-86
2022/05/20 01:23:19;;;;;;;24.27;12.07;;;14.40;65.20;;;;;;10087996;29;20044;-87
2022/05/20 01:28:22;;;;;;;19.75;7.68;;;14.50;65.50;;;;;;10071598;29;20085;-87
2022/05/20 01:33:26;;;;;;;16.20;5.53;;;14.40;65.20;;;;;;10070777;29;20040;-87
2022/05/20 01:38:28;;;;;;;10.98;4.80;;;14.50;65.00;;;;;;10101167;29;20685;-89
2022/05/20 01:43:53;;;;;;;12.13;5.15;;;14.60;65.00;;;;;;10088460;29;20421;-86
2022/05/20 01:49:18;;;;;;;13.67;5.60;;;14.60;64.90;;;;;;10070619;29;20037;-88
2022/05/20 01:54:47;;;;;;;13.88;5.90;;;14.60;65.10;;;;;;10069678;29;20489;-86
2022/05/20 01:59:53;;;;;;;14.40;6.22;;;14.50;65.50;;;;;;10057819;29;20097;-86
2022/05/20 02:05:09;;;;;;;11.30;6.18;;;14.30;65.70;;;;;;10077533;29;20552;-85
2022/05/20 02:10:28;;;;;;;9.15;5.28;;;14.20;66.20;;;;;;10078790;29;20049;-88
2022/05/20 02:15:35;;;;;;;14.32;7.63;;;14.00;65.90;;;;;;10086573;29;20037;-87
2022/05/20 02:20:48;;;;;;;11.32;7.15;;;13.90;66.90;;;;;;10069399;29;20539;-88
2022/05/20 02:25:54;;;;;;;14.77;5.65;;;13.70;67.50;;;;;;10069808;29;20036;-86
2022/05/20 02:30:56;;;;;;;12.93;5.18;;;13.60;67.50;;;;;;10066665;29;20033;-90
2022/05/20 02:36:15;;;;;;;7.93;4.18;;;13.70;67.20;;;;;;10067250;29;20045;-88
2022/05/20 02:41:16;;;;;;;8.43;4.38;;;13.60;67.20;;;;;;10069098;29;20041;-86
2022/05/20 02:46:17;;;;;;;9.02;4.63;;;13.60;67.60;;;;;;10054160;29;20033;-87
2022/05/20 02:51:18;;;;;;;8.82;4.80;;;13.50;68.20;;;;;;10069615;29;20025;-89
2022/05/20 02:56:18;;;;;;;10.27;4.18;;;13.50;68.00;;;;;;10068563;29;20049;-86
2022/05/20 03:06:46;;;;;;;5.63;3.42;;;13.30;68.50;;;;;;10075494;29;20053;-87
2022/05/20 03:11:47;;;;;;;8.55;4.20;;;13.30;68.80;;;;;;10068835;29;20485;-87
2022/05/20 03:16:50;;;;;;;6.53;3.85;;;13.40;68.70;;;;;;10082093;29;20032;-86
2022/05/20 03:21:51;;;;;;;8.95;3.80;;;13.40;69.00;;;;;;10076406;29;20041;-86
2022/05/20 03:26:51;;;;;;;11.00;3.95;;;13.40;69.00;;;;;;10053377;29;20045;-87
2022/05/20 03:31:52;;;;;;;7.10;3.55;;;13.40;69.40;;;;;;10074819;29;20045;-88
2022/05/20 03:36:53;;;;;;;10.38;3.53;;;13.50;69.50;;;;;;10061861;29;20036;-86
2022/05/20 03:41:55;;;;;;;6.90;3.25;;;13.50;69.60;;;;;;10092118;29;20041;-89
2022/05/20 03:46:58;;;;;;;4.63;3.08;;;13.70;69.20;;;;;;10106147;29;20041;-87
2022/05/20 03:51:59;;;;;;;7.45;3.67;;;13.90;69.20;;;;;;10074272;29;20065;-86
2022/05/20 03:57:00;;;;;;;7.97;3.75;;;14.00;69.20;;;;;;10081542;29;20120;-87
2022/05/20 04:02:06;;;;;;;7.57;4.10;;;14.20;69.30;;;;;;10064666;29;20048;-87
2022/05/20 04:07:10;;;;;;;6.97;3.87;;;14.40;68.50;;;;;;10067602;29;20065;-84
2022/05/20 04:12:32;;;;;;;7.35;3.17;;;14.60;68.50;;;;;;10072630;29;20346;-87
2022/05/20 04:17:32;;;;;;;10.25;3.85;;;14.90;67.30;;;;;;10078832;29;20025;-86
2022/05/20 04:22:37;;;;;;;6.32;3.10;;;15.10;67.10;;;;;;10059892;29;20060;-87
2022/05/20 04:27:39;;;;;;;6.10;2.30;;;15.30;67.00;;;;;;10080414;29;20036;-90
2022/05/20 04:32:39;;;;;;;2.63;1.70;;;15.50;66.50;;;;;;10091083;29;20029;-86
2022/05/20 04:37:40;;;;;;;3.63;2.25;;;15.70;66.20;;;;;;10093065;29;20041;-87
2022/05/20 04:48:00;;;;;;;4.82;2.58;;;16.00;66.30;;;;;;10088798;29;20082;-85
2022/05/20 04:53:01;;;;;;;4.53;3.08;;;16.10;66.30;;;;;;10101996;29;20132;-85
2022/05/20 04:58:02;;;;;;;7.05;3.80;;;16.10;66.60;;;;;;10070774;29;20088;-92
2022/05/20 05:03:03;;;;;;;4.85;2.75;;;16.30;66.80;;;;;;10059435;29;20051;-90
2022/05/20 05:08:04;;;;;;;7.63;3.55;;;16.50;66.50;;;;;;10070599;29;20055;-91
2022/05/20 05:13:05;;;;;;;4.28;2.92;;;16.80;65.00;;;;;;10073071;29;20035;-88
2022/05/20 05:18:21;;;;;;;7.15;3.38;;;17.10;65.00;;;;;;10057382;29;20069;-89
2022/05/20 05:23:22;;;;;;;5.43;2.13;;;17.30;64.10;;;;;;10072690;29;20132;-88
2022/05/20 05:28:23;;;;;;;4.35;1.90;;;17.50;63.70;;;;;;10087944;29;20177;-88
2022/05/20 05:33:25;;;;;;;5.38;2.03;;;17.60;63.20;;;;;;10071730;29;20053;-89
2022/05/20 05:38:25;;;;;;;6.13;2.33;;;17.80;63.50;;;;;;10070533;29;20518;-87
2022/05/20 05:43:26;;;;;;;7.90;2.58;;;18.00;63.70;;;;;;10050573;29;20197;-88
2022/05/20 05:48:27;;;;;;;5.47;2.40;;;18.20;63.60;;;;;;10047989;29;20030;-88
2022/05/20 05:53:28;;;;;;;6.72;2.33;;;18.50;63.40;;;;;;10049529;29;20478;-89
2022/05/20 05:58:29;;;;;;;7.75;2.35;;;18.80;61.50;;;;;;10067610;29;20032;-89
2022/05/20 06:03:30;;;;;;;4.68;2.20;;;19.10;61.00;;;;;;10071023;29;20041;-86
2022/05/20 06:08:42;;;;;;;4.80;2.22;;;19.30;60.80;;;;;;10063102;29;20065;-89
2022/05/20 06:13:43;;;;;;;6.03;1.98;;;19.80;60.40;;;;;;10086455;29;20040;-88
2022/05/20 06:18:43;;;;;;;7.82;2.13;;;20.10;60.80;;;;;;10039556;29;20037;-86
2022/05/20 06:23:44;;;;;;;7.65;2.60;;;20.40;60.50;;;;;;10101134;29;20033;-90
2022/05/20 06:28:45;;;;;;;11.70;3.05;;;20.50;61.00;;;;;;10102024;29;20064;-89
2022/05/20 06:33:46;;;;;;;6.38;2.53;;;20.70;61.30;;;;;;10101310;29;20037;-86
2022/05/20 06:44:12;;;;;;;8.75;2.85;;;21.00;60.40;;;;;;10087712;29;20041;-88
2022/05/20 06:49:13;;;;;;;7.18;3.00;;;20.80;60.70;;;;;;10101612;29;20047;-87
2022/05/20 06:54:14;;;;;;;6.93;2.70;;;20.90;61.60;;;;;;10108606;29;20513;-86
2022/05/20 06:59:15;;;;;;;9.55;2.58;;;20.90;61.90;;;;;;10109183;29;20025;-89
2022/05/20 07:04:15;;;;;;;7.60;2.95;;;20.80;62.40;;;;;;10095293;29;20038;-88
2022/05/20 07:09:16;;;;;;;6.35;3.30;;;20.70;62.80;;;;;;10077537;29;20508;-89
2022/05/20 07:14:16;;;;;;;10.98;3.58;;;20.70;63.10;;;;;;10072791;29;20132;-87
2022/05/20 07:19:18;;;;;;;7.55;3.08;;;20.50;63.80;;;;;;10091965;29;20120;-87
2022/05/20 07:24:21;;;;;;;5.55;2.80;;;20.30;64.50;;;;;;10042141;29;20044;-91
2022/05/20 07:29:22;;;;;;;6.72;2.70;;;20.20;65.00;;;;;;10075246;29;20044;-87
2022/05/20 07:34:23;;;;;;;6.93;2.70;;;20.00;65.90;;;;;;10076470;29;20036;-85
2022/05/20 07:39:23;;;;;;;8.57;3.47;;;19.90;66.80;;;;;;10040343;29;20038;-86
2022/05/20 07:44:24;;;;;;;9.02;2.60;;;20.00;67.00;;;;;;10052662;29;20033;-88
2022/05/20 07:49:25;;;;;;;15.35;3.67;;;20.20;67.80;;;;;;10054892;29;20026;-88
2022/05/20 07:54:27;;;;;;;12.18;3.53;;;20.50;67.60;;;;;;10057674;29;20045;-89
2022/05/20 07:59:49;;;;;;;7.68;3.42;;;20.90;67.60;;;;;;10054191;29;20038;-89
2022/05/20 08:04:53;;;;;;;8.00;3.13;;;21.30;66.80;;;;;;10055668;29;20026;-88
2022/05/20 08:09:54;;;;;;;7.07;3.08;;;21.60;66.90;;;;;;10055787;29;20053;-89
2022/05/20 08:14:55;;;;;;;4.85;2.47;;;21.90;67.60;;;;;;10045910;29;20188;-91
2022/05/20 08:19:56;;;;;;;8.63;2.95;;;21.80;66.20;;;;;;10092163;29;20044;-89
2022/05/20 08:24:58;;;;;;;7.32;3.10;;;22.20;67.20;;;;;;10042609;29;20029;-88
2022/05/20 08:30:05;;;;;;;6.20;2.50;;;22.90;66.30;;;;;;10053444;29;20033;-87
2022/05/20 08:35:06;;;;;;;3.55;2.42;;;23.60;65.20;;;;;;10058599;29;20053;-86
2022/05/20 08:40:13;;;;;;;5.75;2.60;;;23.90;64.50;;;;;;10086490;29;20023;-86
2022/05/20 08:45:17;;;;;;;4.55;1.90;;;24.20;63.20;;;;;;10086274;29;20489;-88
2022/05/20 08:50:24;;;;;;;3.23;2.57;;;24.60;64.20;;;;;;10073111;29;20029;-85
2022/05/20 08:55:25;;;;;;;2.97;2.10;;;25.00;62.70;;;;;;10085719;29;20041;-85
2022/05/20 09:00:28;;;;;;;6.35;2.20;;;25.20;61.60;;;;;;10079716;29;20049;-85
2022/05/20 09:05:33;;;;;;;5.93;2.30;;;25.40;61.50;;;;;;10033786;29;20057;-84
2022/05/20 09:10:38;;;;;;;;;;;25.90;61.50;;;;;;10056979;29;20049;-84
2022/05/20 09:15:49;;;;;;;;;;;26.30;61.20;;;;;;10049558;29;20387;-83
2022/05/20 09:20:52;;;;;;;4.22;2.13;;;26.60;60.00;;;;;;10089080;29;19972;-85
2022/05/20 09:25:57;;;;;;;4.55;2.15;;;26.70;58.90;;;;;;10070357;29;20026;-85
2022/05/20 09:31:17;;;;;;;;;;;26.90;59.00;;;;;;10083978;29;20037;-86
2022/05/20 09:36:35;;;;;;;5.03;1.92;;;27.10;58.70;;;;;;10074320;29;20384;-86
2022/05/20 09:41:51;;;;;;;5.28;2.40;;;27.10;58.40;;;;;;10069669;29;20049;-87
2022/05/20 09:46:58;;;;;;;4.88;2.22;;;27.00;57.80;;;;;;10033792;29;20041;-87
2022/05/20 09:52:00;;;;;;;8.57;2.95;;;27.10;59.00;;;;;;10037620;29;20502;-90
2022/05/20 09:57:04;;;;;;;5.05;2.47;;;27.50;57.70;;;;;;10048129;29;20029;-85
2022/05/20 10:02:13;;;;;;;5.17;2.23;;;27.40;57.00;;;;;;10058315;29;20128;-85
2022/05/20 10:07:19;;;;;;;5.85;3.25;;;27.50;57.40;;;;;;10085315;29;20502;-86
2022/05/20 10:12:32;;;;;;;5.70;2.78;;;27.70;57.10;;;;;;10070721;29;20029;-85
2022/05/20 10:17:57;;;;;;;10.57;2.38;;;28.00;56.60;;;;;;10083349;29;20037;-85
2022/05/20 10:23:06;;;;;;;9.25;2.15;;;27.90;55.60;;;;;;10056895;29;20042;-88
2022/05/20 10:34:00;;;;;;;6.53;2.60;;;27.90;55.30;;;;;;10057451;29;20526;-87
2022/05/20 10:39:22;;;;;;;8.02;2.90;;;28.20;55.30;;;;;;10043131;29;20049;-88
2022/05/20 10:50:24;;;;;;;7.63;2.10;;;28.30;55.50;;;;;;10092583;29;20045;-86
2022/05/20 10:55:51;;;;;;;3.33;2.20;;;28.30;56.30;;;;;;10093298;29;20383;-84
2022/05/20 11:00:55;;;;;;;5.38;2.42;;;28.40;55.20;;;;;;10088116;29;20033;-86
2022/05/20 11:06:33;;;;;;;3.47;2.40;;;28.40;55.00;;;;;;10046207;29;20053;-86
2022/05/20 11:11:58;;;;;;;6.30;2.30;;;28.70;55.40;;;;;;10069949;29;20977;-88
2022/05/20 11:17:30;;;;;;;4.73;2.10;;;28.70;54.70;;;;;;10052673;29;20187;-88
2022/05/20 11:22:42;;;;;;;4.50;1.92;;;28.70;54.90;;;;;;10080636;29;20493;-89
2022/05/20 11:28:14;;;;;;;4.18;2.60;;;28.80;54.80;;;;;;10074452;29;20080;-88
2022/05/20 11:33:33;;;;;;;5.95;2.58;;;28.70;54.90;;;;;;10062026;29;20045;-88
2022/05/20 11:38:43;;;;;;;5.05;2.33;;;28.70;54.60;;;;;;10053848;29;20029;-85
2022/05/20 11:43:45;;;;;;;4.65;2.35;;;28.50;54.90;;;;;;10084253;29;20101;-86
2022/05/20 11:49:04;;;;;;;4.63;2.00;;;28.30;55.40;;;;;;10057985;29;20037;-87
2022/05/20 11:54:17;;;;;;;3.83;1.88;;;28.30;56.40;;;;;;10077071;29;20029;-87
2022/05/20 11:59:34;;;;;;;6.88;2.67;;;28.50;56.30;;;;;;10086064;29;20029;-88
2022/05/20 12:04:37;;;;;;;5.78;2.58;;;28.90;56.90;;;;;;10064760;29;20041;-89
2022/05/20 12:09:44;;;;;;;6.55;2.58;;;28.90;56.00;;;;;;10053880;29;20049;-90
2022/05/20 12:14:54;;;;;;;6.50;2.50;;;28.80;55.60;;;;;;10053141;29;20029;-90
2022/05/20 12:25:38;;;;;;;3.45;2.42;;;28.70;56.40;;;;;;10092588;29;20041;-88
2022/05/20 12:31:04;;;;;;;6.85;2.38;;;28.90;56.50;;;;;;10076028;29;20563;-89
2022/05/20 12:36:29;;;;;;;5.43;2.72;;;29.00;56.60;;;;;;10075948;29;20041;-91
2022/05/20 12:41:36;;;;;;;;;;;29.00;57.10;;;;;;10077051;29;20033;-91
2022/05/20 12:47:04;;;;;;;4.95;2.30;;;29.00;57.00;;;;;;10075274;29;19918;-90
2022/05/20 12:52:11;;;;;;;9.18;2.65;;;29.00;57.20;;;;;;10074431;29;20036;-90
2022/05/20 12:57:21;;;;;;;5.65;3.08;;;29.20;56.80;;;;;;10075824;29;20486;-90
2022/05/20 13:02:22;;;;;;;5.45;2.08;;;28.90;57.50;;;;;;10074071;29;20037;-89
2022/05/20 13:07:26;;;;;;;6.47;3.25;;;28.80;56.80;;;;;;10075290;29;20060;-91
2022/05/20 13:12:27;;;;;;;9.20;3.00;;;28.30;58.50;;;;;;10072832;29;20465;-90
2022/05/20 13:17:31;;;;;;;4.40;2.75;;;28.50;58.30;;;;;;10072019;29;20040;-90
2022/05/20 13:22:31;;;;;;;4.25;2.75;;;28.50;59.10;;;;;;10065908;29;20044;-90
2022/05/20 13:27:33;;;;;;;6.20;2.40;;;29.00;58.70;;;;;;10061232;29;20051;-89
2022/05/20 13:32:34;;;;;;;5.60;2.92;;;29.20;57.60;;;;;;10073884;29;20778;-90
2022/05/20 13:37:49;;;;;;;8.80;2.92;;;29.10;57.80;;;;;;10069743;29;20033;-89
2022/05/20 13:42:56;;;;;;;5.38;2.78;;;28.80;58.20;;;;;;10069540;29;20080;-89
2022/05/20 13:53:17;;;;;;;5.60;2.65;;;28.80;59.10;;;;;;10086999;29;20772;-89
2022/05/20 13:58:18;;;;;;;2.60;2.35;;;28.50;58.30;;;;;;10062485;29;21495;-92
2022/05/20 14:03:28;;;;;;;3.78;2.55;;;28.10;59.70;;;;;;10069837;29;20045;-91
2022/05/20 14:08:31;;;;;;;6.07;2.30;;;28.00;60.70;;;;;;10070656;29;20049;-91
2022/05/20 14:13:40;;;;;;;3.47;2.30;;;27.80;61.40;;;;;;10068262;29;20029;-90
2022/05/20 14:18:44;;;;;;;4.10;2.80;;;27.90;60.80;;;;;;10072944;29;20021;-88
2022/05/20 14:23:54;;;;;;;4.80;2.63;;;28.00;60.00;;;;;;10070699;29;20037;-90
2022/05/20 14:29:12;;;;;;;6.07;2.67;;;27.60;61.00;;;;;;10068121;29;20382;-90
2022/05/20 14:34:51;;;;;;;6.95;3.13;;;27.50;60.30;;;;;;10071124;29;20706;-92
2022/05/20 14:40:14;;;;;;;4.85;2.85;;;27.50;61.20;;;;;;10060103;29;20082;-90
2022/05/20 14:45:19;;;;;;;5.13;2.78;;;27.40;60.60;;;;;;10073974;29;20136;-88
2022/05/20 14:50:28;;;;;;;2.75;2.42;;;27.30;61.10;;;;;;10069688;29;20414;-92
2022/05/20 14:55:56;;;;;;;8.07;3.88;;;27.20;61.10;;;;;;10064575;29;20100;-91
2022/05/20 15:01:10;;;;;;;6.65;4.20;;;27.10;61.70;;;;;;10076783;29;20569;-92
2022/05/20 15:06:42;;;;;;;7.20;4.43;;;27.20;61.80;;;;;;10074662;29;20193;-92
2022/05/20 15:11:51;;;;;;;7.05;3.20;;;27.30;61.80;;;;;;10054583;29;20181;-92
2022/05/20 15:16:57;;;;;;;4.75;3.10;;;27.30;61.80;;;;;;10079874;29;20033;-92
2022/05/20 15:22:01;;;;;;;6.32;3.30;;;27.30;61.90;;;;;;10081195;29;20079;-93
2022/05/20 15:27:10;;;;;;;5.05;2.95;;;27.10;61.80;;;;;;10083185;29;20541;-90
2022/05/20 15:37:41;;;;;;;6.82;3.05;;;27.20;62.10;;;;;;10081988;29;20045;-93
2022/05/20 15:42:48;;;;;;;5.10;2.50;;;27.40;61.60;;;;;;10077080;29;20057;-91
2022/05/20 15:47:51;;;;;;;3.53;2.80;;;27.20;61.40;;;;;;10077039;29;20067;-92
2022/05/20 15:53:04;;;;;;;5.18;2.65;;;27.30;62.60;;;;;;10076082;29;20029;-92
2022/05/20 15:58:12;;;;;;;7.38;4.97;;;27.10;62.40;;;;;;10076415;29;20029;-88
2022/05/20 16:03:50;;;;;;;3.00;2.72;;;26.90;61.80;;;;;;10075403;29;20048;-92
2022/05/20 16:09:02;;;;;;;4.38;2.53;;;26.80;63.10;;;;;;10083957;29;20156;-91
2022/05/20 16:14:09;;;;;;;4.43;2.20;;;26.70;62.90;;;;;;10084860;29;20635;-93
2022/05/20 16:19:20;;;;;;;4.90;2.80;;;26.60;62.40;;;;;;10076853;29;20465;-90
2022/05/20 16:24:24;;;;;;;7.28;2.20;;;26.40;63.00;;;;;;10078726;29;20592;-92
2022/05/20 16:29:48;;;;;;;4.33;2.43;;;26.20;62.90;;;;;;10079620;29;20379;-92
2022/05/20 16:35:21;;;;;;;3.33;2.28;;;26.00;63.10;;;;;;10072361;29;20042;-92
2022/05/20 16:40:24;;;;;;;7.40;2.88;;;25.90;63.30;;;;;;10077346;29;20041;-92
2022/05/20 16:46:25;;;;;;;;;;;;;;;;;;;;;
2022/05/20 17:34:56;;;;;;;6.25;2.72;;;25.10;67.90;;;;;;11387490;23;20060;-91
2022/05/20 17:40:28;;;;;;;5.70;2.80;;;25.00;68.90;;;;;;10108155;29;20087;-91
2022/05/20 17:45:31;;;;;;;5.80;2.63;;;24.90;69.30;;;;;;10114581;29;20040;-91
2022/05/20 17:50:33;;;;;;;10.10;3.72;;;24.80;69.90;;;;;;10115022;29;20084;-91
2022/05/20 17:55:37;;;;;;;6.18;2.95;;;24.60;70.50;;;;;;10115845;29;20040;-91
2022/05/20 18:00:43;;;;;;;7.97;2.70;;;24.50;71.20;;;;;;10114057;29;20036;-91
2022/05/20 18:05:44;;;;;;;7.32;3.20;;;24.30;71.40;;;;;;10113392;29;20028;-91
2022/05/20 18:10:45;;;;;;;4.63;3.25;;;24.10;73.00;;;;;;10112952;29;20028;-92
2022/05/20 18:15:48;;;;;;;10.60;4.28;;;23.90;73.00;;;;;;10112376;29;20039;-90
2022/05/20 18:20:49;;;;;;;7.70;3.83;;;23.80;73.80;;;;;;10112915;29;20127;-91
2022/05/20 18:25:50;;;;;;;9.23;4.20;;;23.60;74.50;;;;;;10112055;29;20438;-91
2022/05/20 18:30:58;;;;;;;5.88;3.50;;;23.40;75.20;;;;;;10114564;29;20028;-90
2022/05/20 18:41:19;;;;;;;11.52;4.78;;;23.00;76.10;;;;;;10108484;29;20041;-91
2022/05/20 18:46:20;;;;;;;11.45;4.03;;;22.90;76.90;;;;;;10099875;29;20032;-91
2022/05/20 18:51:33;;;;;;;8.52;4.32;;;22.70;77.40;;;;;;10121564;29;20035;-92
2022/05/20 18:56:36;;;;;;;8.48;3.97;;;22.60;78.10;;;;;;10114985;29;20127;-90
2022/05/20 19:01:46;;;;;;;7.68;3.85;;;22.50;78.70;;;;;;10081618;29;20040;-91
2022/05/20 19:06:56;;;;;;;5.47;3.75;;;22.40;79.30;;;;;;10110546;29;20044;-91
2022/05/20 19:12:00;;;;;;;7.65;3.80;;;22.30;78.80;;;;;;10123102;29;20036;-92
2022/05/20 19:17:01;;;;;;;8.95;4.50;;;22.20;79.20;;;;;;10120131;29;20110;-90
2022/05/20 19:22:04;;;;;;;7.95;5.25;;;22.10;79.50;;;;;;10102852;29;20517;-90
2022/05/20 19:27:06;;;;;;;9.60;5.22;;;21.80;80.80;;;;;;10082096;29;20081;-91
2022/05/20 19:32:10;;;;;;;10.82;5.18;;;21.40;82.20;;;;;;10098915;29;20028;-91
2022/05/20 19:37:11;;;;;;;9.98;5.53;;;21.10;83.80;;;;;;10117512;29;20051;-91
2022/05/20 19:42:12;;;;;;;7.07;5.15;;;20.70;85.00;;;;;;10118187;29;20530;-91
2022/05/20 19:47:12;;;;;;;8.30;5.72;;;20.50;86.20;;;;;;10076434;29;20116;-90
2022/05/20 19:52:13;;;;;;;13.15;6.70;;;20.30;87.70;;;;;;10077057;29;20029;-91
2022/05/20 20:02:36;;;;;;;12.32;7.72;;;20.00;91.00;;;;;;10087240;29;20049;-93
2022/05/20 20:08:11;;;;;;;15.73;8.55;;;19.90;92.80;;;;;;10119370;29;20043;-91
2022/05/20 20:13:12;;;;;;;17.95;10.02;;;19.80;94.40;;;;;;10086664;29;20033;-92
2022/05/20 20:18:25;;;;;;;17.13;10.80;;;19.60;96.00;;;;;;10112188;29;20021;-91
2022/05/20 20:29:31;;;;;;;18.90;8.33;;;19.40;99.10;;;;;;10101417;29;20049;-93
2022/05/20 20:35:42;;;;;;;;;;;;;;;;;;;;;
2022/05/20 20:41:20;;;;;;;17.83;10.70;;;19.30;99.90;;;;;;10092088;29;20049;-93
2022/05/20 20:52:53;;;;;;;15.68;9.50;;;19.30;99.90;;;;;;10074638;29;20037;-91
2022/05/20 20:58:12;;;;;;;10.73;7.03;;;19.40;99.90;;;;;;10105878;29;20052;-91
2022/05/20 21:03:15;;;;;;;11.32;6.85;;;19.70;99.90;;;;;;10080798;29;20127;-90
2022/05/20 21:08:17;;;;;;;12.38;6.30;;;20.00;99.90;;;;;;10084559;29;20033;-91
2022/05/20 21:13:18;;;;;;;12.27;5.65;;;20.20;98.70;;;;;;10100234;29;20489;-90
2022/05/20 21:18:19;;;;;;;8.40;4.55;;;20.20;98.00;;;;;;10103809;29;20116;-91
2022/05/20 21:23:21;;;;;;;12.68;5.97;;;20.20;97.80;;;;;;10084061;29;20033;-90
2022/05/20 21:28:25;;;;;;;9.25;5.22;;;20.20;97.40;;;;;;10093518;29;20592;-91
2022/05/20 21:33:27;;;;;;;9.20;5.47;;;20.20;97.10;;;;;;10118817;29;20392;-91
2022/05/20 21:38:29;;;;;;;8.57;5.28;;;20.20;96.90;;;;;;10089637;29;20057;-91
2022/05/20 21:43:29;;;;;;;9.63;5.70;;;20.10;96.60;;;;;;10073948;29;20445;-91
2022/05/20 21:48:34;;;;;;;10.15;5.60;;;20.10;96.30;;;;;;10084476;29;20040;-91
2022/05/20 21:53:36;;;;;;;10.15;5.88;;;20.10;96.20;;;;;;10086023;29;20471;-91
2022/05/20 21:58:37;;;;;;;8.50;5.40;;;20.10;96.00;;;;;;10068631;29;20538;-90
2022/05/20 22:09:00;;;;;;;9.48;6.57;;;20.10;95.90;;;;;;10095259;29;20610;-91
2022/05/20 22:14:02;;;;;;;9.43;5.40;;;20.10;95.60;;;;;;10080872;29;20025;-92
2022/05/20 22:19:07;;;;;;;8.07;5.13;;;20.10;95.20;;;;;;10052046;29;20037;-91
2022/05/20 22:24:27;;;;;;;6.25;4.60;;;20.10;94.90;;;;;;10073592;29;20056;-91
2022/05/20 22:29:29;;;;;;;6.15;4.70;;;20.20;94.40;;;;;;10078476;29;20037;-92
2022/05/20 22:34:33;;;;;;;8.75;4.88;;;20.20;94.10;;;;;;10069994;29;20052;-90
2022/05/20 22:39:34;;;;;;;6.15;4.28;;;20.30;93.90;;;;;;10092499;29;20402;-91
2022/05/20 22:44:36;;;;;;;7.03;4.13;;;20.30;93.60;;;;;;10088038;29;20052;-90
2022/05/20 22:49:37;;;;;;;6.03;4.25;;;20.40;93.50;;;;;;10094833;29;20033;-91
2022/05/20 22:59:57;;;;;;;8.45;3.72;;;20.50;92.50;;;;;;10091976;29;20049;-91
2022/05/20 23:04:58;;;;;;;7.68;3.47;;;20.80;91.50;;;;;;10107499;29;20488;-88
2022/05/20 23:09:58;;;;;;;11.77;3.63;;;21.10;90.50;;;;;;10109580;29;20040;-88
2022/05/20 23:14:59;;;;;;;15.48;4.57;;;21.30;89.60;;;;;;10108397;29;20461;-88
2022/05/20 23:20:00;;;;;;;8.25;4.22;;;21.60;88.30;;;;;;10073301;29;20041;-87
2022/05/20 23:25:03;;;;;;;7.78;3.40;;;21.60;87.70;;;;;;10070452;29;20040;-90
2022/05/20 23:30:04;;;;;;;14.02;4.30;;;21.60;87.90;;;;;;10087482;29;20023;-89
2022/05/20 23:35:05;;;;;;;13.50;3.72;;;21.50;88.40;;;;;;10076807;29;20418;-88
2022/05/20 23:40:07;;;;;;;6.78;4.05;;;21.50;88.90;;;;;;10075975;29;20055;-89
2022/05/20 23:45:09;;;;;;;7.75;3.30;;;21.30;90.20;;;;;;10076587;29;20131;-91
2022/05/20 23:50:10;;;;;;;10.65;3.15;;;21.20;90.80;;;;;;10092746;29;20029;-89
